createdAt,value
2023-03-10T00:03:01.384Z,100.00
2023-03-10T00:06:10.168Z,100.00
2023-03-10T00:09:35.805Z,100.00
2023-03-10T00:12:41.553Z,100.00
2023-03-10T00:15:58.318Z,100.00
2023-03-10T00:19:13.433Z,100.00
2023-03-10T00:22:39.205Z,100.00
2023-03-10T00:26:12.643Z,100.00
2023-03-10T00:29:38.239Z,100.00
2023-03-10T00:33:04.053Z,100.00
2023-03-10T00:36:31.412Z,100.00
2023-03-10T00:39:57.869Z,100.00
2023-03-10T00:43:23.628Z,100.00
2023-03-10T00:46:50.193Z,100.00
2023-03-10T00:50:17.364Z,100.00
2023-03-10T00:53:43.240Z,100.00
2023-03-10T00:57:09.178Z,100.00
2023-03-10T01:00:36.129Z,100.00
2023-03-10T01:04:03.193Z,100.00
2023-03-10T01:07:28.787Z,100.00
2023-03-10T01:10:54.851Z,100.00
2023-03-10T01:14:20.535Z,100.00
2023-03-10T01:17:46.310Z,100.00
2023-03-10T01:21:15.696Z,100.00
2023-03-10T01:24:41.296Z,100.00
2023-03-10T01:28:07.093Z,100.00
2023-03-10T01:31:34.100Z,100.00
2023-03-10T01:35:00.021Z,100.00
2023-03-10T01:38:25.682Z,100.00
2023-03-10T01:41:51.292Z,100.00
2023-03-10T01:45:12.128Z,100.00
2023-03-10T01:48:38.473Z,100.00
2023-03-10T01:52:06.491Z,100.00
2023-03-10T01:55:33.019Z,100.00
2023-03-10T01:58:58.919Z,100.00
2023-03-10T02:02:33.090Z,100.00
2023-03-10T02:06:00.841Z,100.00
2023-03-10T02:09:26.981Z,100.00
2023-03-10T02:12:53.008Z,100.00
2023-03-10T02:16:19.436Z,100.00
2023-03-10T02:19:55.070Z,100.00
2023-03-10T02:23:26.501Z,100.00
2023-03-10T02:26:55.852Z,100.00
2023-03-10T02:30:23.571Z,100.00
2023-03-10T02:33:50.828Z,100.00
2023-03-10T02:37:23.426Z,100.00
2023-03-10T02:40:49.828Z,100.00
2023-03-10T02:44:18.061Z,100.00
2023-03-10T02:47:43.823Z,100.00
2023-03-10T02:51:12.470Z,100.00
2023-03-10T02:54:38.022Z,100.00
2023-03-10T02:58:03.836Z,100.00
2023-03-10T03:01:30.543Z,100.00
2023-03-10T03:04:56.214Z,100.00
2023-03-10T03:08:21.958Z,100.00
2023-03-10T03:11:47.876Z,100.00
2023-03-10T03:15:14.883Z,100.00
2023-03-10T03:18:40.599Z,100.00
2023-03-10T03:22:06.603Z,100.00
2023-03-10T03:25:35.979Z,100.00
2023-03-10T03:29:01.593Z,100.00
2023-03-10T03:32:27.628Z,100.00
2023-03-10T03:35:53.630Z,100.00
2023-03-10T03:39:19.671Z,100.00
2023-03-10T03:42:47.018Z,100.00
2023-03-10T03:46:12.729Z,100.00
2023-03-10T03:49:38.823Z,100.00
2023-03-10T03:53:04.895Z,100.00
2023-03-10T03:56:30.910Z,100.00
2023-03-10T03:59:56.538Z,100.00
2023-03-10T04:03:22.579Z,100.00
2023-03-10T04:06:50.461Z,100.00
2023-03-10T04:10:18.742Z,100.00
2023-03-10T04:13:47.546Z,100.00
2023-03-10T04:17:13.272Z,100.00
2023-03-10T04:20:40.136Z,100.00
2023-03-10T04:24:06.646Z,100.00
2023-03-10T04:27:32.729Z,100.00
2023-03-10T04:30:58.678Z,100.00
2023-03-10T04:34:24.652Z,100.00
2023-03-10T04:37:50.519Z,100.00
2023-03-10T04:41:17.647Z,100.00
2023-03-10T04:44:43.752Z,100.00
2023-03-10T04:48:00.183Z,100.00
2023-03-10T04:51:26.308Z,100.00
2023-03-10T04:54:52.258Z,100.00
2023-03-10T04:58:18.368Z,100.00
2023-03-10T05:01:44.283Z,100.00
2023-03-10T05:05:13.438Z,100.00
2023-03-10T05:08:42.630Z,100.00
2023-03-10T05:12:09.210Z,100.00
2023-03-10T05:15:36.444Z,100.00
2023-03-10T05:19:02.229Z,100.00
2023-03-10T05:22:28.104Z,100.00
2023-03-10T05:25:53.995Z,100.00
2023-03-10T05:29:20.927Z,100.00
2023-03-10T05:32:49.708Z,100.00
2023-03-10T05:36:15.658Z,100.00
2023-03-10T05:39:45.008Z,100.00
2023-03-10T05:43:10.519Z,100.00
2023-03-10T05:46:36.469Z,100.00
2023-03-10T05:50:02.101Z,100.00
2023-03-10T05:53:27.870Z,100.00
2023-03-10T05:56:53.801Z,100.00
2023-03-10T06:00:21.223Z,100.00
2023-03-10T06:03:47.321Z,100.00
2023-03-10T06:07:13.393Z,100.00
2023-03-10T06:10:39.290Z,100.00
2023-03-10T06:14:06.255Z,100.00
2023-03-10T06:17:31.876Z,100.00
2023-03-10T06:20:58.147Z,100.00
2023-03-10T06:24:23.931Z,100.00
2023-03-10T06:27:49.993Z,100.00
2023-03-10T06:31:17.899Z,100.00
2023-03-10T06:34:43.791Z,100.00
2023-03-10T06:38:02.354Z,100.00
2023-03-10T06:41:29.039Z,100.00
2023-03-10T06:44:56.453Z,100.00
2023-03-10T06:48:22.224Z,100.00
2023-03-10T06:51:48.295Z,100.00
2023-03-10T06:55:17.021Z,100.00
2023-03-10T06:58:45.851Z,100.00
2023-03-10T07:02:12.868Z,100.00
2023-03-10T07:05:38.649Z,100.00
2023-03-10T07:09:51.957Z,100.00
2023-03-10T07:12:55.305Z,100.00
2023-03-10T07:16:21.388Z,100.00
2023-03-10T07:19:49.123Z,100.00
2023-03-10T07:23:17.289Z,100.00
2023-03-10T07:26:43.698Z,100.00
2023-03-10T07:30:13.181Z,100.00
2023-03-10T07:33:40.359Z,100.00
2023-03-10T07:37:05.540Z,100.00
2023-03-10T07:40:51.835Z,100.00
2023-03-10T07:44:18.243Z,100.00
2023-03-10T07:47:46.007Z,100.00
2023-03-10T07:51:12.552Z,100.00
2023-03-10T07:54:28.395Z,100.00
2023-03-10T07:57:56.850Z,100.00
2023-03-10T08:01:23.203Z,100.00
2023-03-10T08:04:41.628Z,100.00
2023-03-10T08:08:07.839Z,100.00
2023-03-10T08:11:34.185Z,100.00
2023-03-10T08:14:59.988Z,100.00
2023-03-10T08:18:45.735Z,100.00
2023-03-10T08:22:11.629Z,100.00
2023-03-10T08:25:39.038Z,100.00
2023-03-10T08:29:05.133Z,100.00
2023-03-10T08:32:33.018Z,100.00
2023-03-10T08:36:10.140Z,100.00
2023-03-10T08:39:36.386Z,100.00
2023-03-10T08:43:03.141Z,100.00
2023-03-10T08:46:30.222Z,100.00
2023-03-10T08:49:55.953Z,100.00
2023-03-10T08:53:21.900Z,100.00
2023-03-10T08:57:08.028Z,100.00
2023-03-10T09:00:33.923Z,100.00
2023-03-10T09:03:59.831Z,100.00
2023-03-10T09:07:25.999Z,100.00
2023-03-10T09:10:51.939Z,100.00
2023-03-10T09:14:17.704Z,100.00
2023-03-10T09:17:52.298Z,100.00
2023-03-10T09:21:19.728Z,100.00
2023-03-10T09:24:43.685Z,100.00
2023-03-10T09:28:10.288Z,100.00
2023-03-10T09:31:38.305Z,100.00
2023-03-10T09:35:04.324Z,100.00
2023-03-10T09:38:32.053Z,100.00
2023-03-10T09:42:09.082Z,100.00
2023-03-10T09:46:01.034Z,100.00
2023-03-10T09:49:32.155Z,100.00
2023-03-10T09:53:00.288Z,100.00
2023-03-10T09:56:29.983Z,100.00
2023-03-10T10:00:08.317Z,100.00
2023-03-10T10:03:51.523Z,100.00
2023-03-10T10:07:21.747Z,100.00
2023-03-10T10:10:47.848Z,100.00
2023-03-10T10:14:33.026Z,100.00
2023-03-10T10:18:17.454Z,99.54
2023-03-10T10:21:48.350Z,99.64
2023-03-10T10:25:18.440Z,98.62
2023-03-10T10:28:41.897Z,97.13
2023-03-10T10:32:09.515Z,96.55
2023-03-10T10:35:36.659Z,96.26
2023-03-10T10:39:51.478Z,96.34
2023-03-10T10:42:54.937Z,95.69
2023-03-10T10:46:27.485Z,95.89
2023-03-10T10:49:53.608Z,94.91
2023-03-10T10:53:24.232Z,94.31
2023-03-10T10:56:56.399Z,93.88
2023-03-10T11:00:27.119Z,93.64
2023-03-10T11:04:05.411Z,92.75
2023-03-10T11:07:19.725Z,91.26
2023-03-10T11:10:29.231Z,91.17
2023-03-10T11:13:40.488Z,91.45
2023-03-10T11:16:57.074Z,90.90
2023-03-10T11:20:11.144Z,91.00
2023-03-10T11:23:21.053Z,91.08
2023-03-10T11:26:35.739Z,90.58
2023-03-10T11:29:52.189Z,90.64
2023-03-10T11:33:05.917Z,90.32
2023-03-10T11:36:21.197Z,87.65
2023-03-10T11:39:30.784Z,86.96
2023-03-10T11:42:40.258Z,87.44
2023-03-10T11:45:54.637Z,85.81
2023-03-10T11:49:07.311Z,85.55
2023-03-10T11:52:14.860Z,85.40
2023-03-10T11:55:22.046Z,84.20
2023-03-10T11:58:33.140Z,83.34
2023-03-10T12:01:43.401Z,83.45
2023-03-10T12:04:52.212Z,83.51
2023-03-10T12:08:04.781Z,83.17
2023-03-10T12:11:21.205Z,83.69
2023-03-10T12:14:36.820Z,82.82
2023-03-10T12:17:46.048Z,82.84
2023-03-10T12:21:07.243Z,82.56
2023-03-10T12:24:35.068Z,81.99
2023-03-10T12:28:15.697Z,81.84
2023-03-10T12:31:37.789Z,82.66
2023-03-10T12:34:45.681Z,81.96
2023-03-10T12:37:51.156Z,81.01
2023-03-10T12:41:01.120Z,79.46
2023-03-10T12:44:27.474Z,79.46
2023-03-10T12:47:44.472Z,78.71
2023-03-10T12:50:52.846Z,78.05
2023-03-10T12:54:02.155Z,76.97
2023-03-10T12:57:11.148Z,75.06
2023-03-10T13:00:21.563Z,76.78
2023-03-10T13:03:30.436Z,77.24
2023-03-10T13:06:40.871Z,78.07
2023-03-10T13:09:49.046Z,78.47
2023-03-10T13:13:01.972Z,78.42
2023-03-10T13:16:09.872Z,78.78
2023-03-10T13:19:22.750Z,78.15
2023-03-10T13:22:30.615Z,78.65
2023-03-10T13:25:36.858Z,78.58
2023-03-10T13:28:56.867Z,77.65
2023-03-10T13:32:19.836Z,78.45
2023-03-10T13:35:31.628Z,78.41
2023-03-10T13:38:42.979Z,78.19
2023-03-10T13:41:49.204Z,78.90
2023-03-10T13:44:55.513Z,78.85
2023-03-10T13:48:01.552Z,78.40
2023-03-10T13:51:17.555Z,78.02
2023-03-10T13:54:24.034Z,77.43
2023-03-10T13:57:34.754Z,76.99
2023-03-10T14:00:40.264Z,76.70
2023-03-10T14:03:56.870Z,76.81
2023-03-10T14:07:13.834Z,77.25
2023-03-10T14:10:21.068Z,77.10
2023-03-10T14:13:42.920Z,77.48
2023-03-10T14:16:53.380Z,77.24
2023-03-10T14:20:01.430Z,77.40
2023-03-10T14:23:26.675Z,77.96
2023-03-10T14:26:32.650Z,78.21
2023-03-10T14:29:38.163Z,78.42
2023-03-10T14:32:43.942Z,78.41
2023-03-10T14:35:49.980Z,78.85
2023-03-10T14:39:00.023Z,79.30
2023-03-10T14:42:05.948Z,80.10
2023-03-10T14:45:20.143Z,79.92
2023-03-10T14:48:27.076Z,79.59
2023-03-10T14:51:36.432Z,79.69
2023-03-10T14:54:42.449Z,80.13
2023-03-10T14:57:49.083Z,80.50
2023-03-10T15:00:54.890Z,80.55
2023-03-10T15:04:00.437Z,81.27
2023-03-10T15:07:10.482Z,81.27
2023-03-10T15:10:16.583Z,81.30
2023-03-10T15:13:25.124Z,80.76
2023-03-10T15:16:33.966Z,81.01
2023-03-10T15:19:39.610Z,81.22
2023-03-10T15:22:45.226Z,81.30
2023-03-10T15:25:50.794Z,81.55
2023-03-10T15:28:56.469Z,81.59
2023-03-10T15:32:01.939Z,81.49
2023-03-10T15:35:07.887Z,81.40
2023-03-10T15:38:15.791Z,81.44
2023-03-10T15:41:21.457Z,81.73
2023-03-10T15:44:27.104Z,81.80
2023-03-10T15:47:33.210Z,81.93
2023-03-10T15:50:58.878Z,81.92
2023-03-10T15:54:04.361Z,81.64
2023-03-10T15:57:12.868Z,81.08
2023-03-10T16:00:19.345Z,81.12
2023-03-10T16:03:35.002Z,81.92
2023-03-10T16:06:40.563Z,82.01
2023-03-10T16:09:47.476Z,82.70
2023-03-10T16:13:05.031Z,84.17
2023-03-10T16:16:11.896Z,85.40
2023-03-10T16:19:19.818Z,86.31
2023-03-10T16:22:25.551Z,87.88
2023-03-10T16:26:05.748Z,88.37
2023-03-10T16:29:14.024Z,89.01
2023-03-10T16:32:32.398Z,90.13
2023-03-10T16:35:40.399Z,90.50
2023-03-10T16:38:55.925Z,90.87
2023-03-10T16:42:04.012Z,91.54
2023-03-10T16:45:12.836Z,92.16
2023-03-10T16:48:21.506Z,92.82
2023-03-10T16:51:28.250Z,93.16
2023-03-10T16:54:33.950Z,93.92
2023-03-10T16:57:42.292Z,94.19
2023-03-10T17:00:47.763Z,94.61
2023-03-10T17:04:03.505Z,94.90
2023-03-10T17:07:09.041Z,95.06
2023-03-10T17:10:14.519Z,95.23
2023-03-10T17:13:22.271Z,95.34
2023-03-10T17:16:31.776Z,95.58
2023-03-10T17:19:37.499Z,95.59
2023-03-10T17:22:42.984Z,95.94
2023-03-10T17:25:52.521Z,96.12
2023-03-10T17:28:58.347Z,96.60
2023-03-10T17:32:03.925Z,96.62
2023-03-10T17:35:12.095Z,96.92
2023-03-10T17:38:17.634Z,97.31
2023-03-10T17:41:24.864Z,97.61
2023-03-10T17:44:33.370Z,97.66
2023-03-10T17:47:41.626Z,98.01
2023-03-10T17:50:49.615Z,98.26
2023-03-10T17:53:59.789Z,98.55
2023-03-10T17:57:08.283Z,98.58
2023-03-10T18:00:14.893Z,98.72
2023-03-10T18:03:22.125Z,98.77
2023-03-10T18:06:31.555Z,98.86
2023-03-10T18:09:37.099Z,99.39
2023-03-10T18:12:42.595Z,99.21
2023-03-10T18:15:59.638Z,99.01
2023-03-10T18:19:10.840Z,99.08
2023-03-10T18:22:20.102Z,99.07
2023-03-10T18:25:25.585Z,98.89
2023-03-10T18:28:48.295Z,98.95
2023-03-10T18:32:03.808Z,99.11
2023-03-10T18:35:28.103Z,99.71
2023-03-10T18:38:36.030Z,100.00
2023-03-10T18:41:50.545Z,100.00
2023-03-10T18:45:05.697Z,100.00
2023-03-10T18:48:11.413Z,100.00
2023-03-10T18:51:17.026Z,100.00
2023-03-10T18:54:27.202Z,100.00
2023-03-10T18:57:49.264Z,100.00
2023-03-10T19:00:58.250Z,100.00
2023-03-10T19:04:03.710Z,100.00
2023-03-10T19:07:21.295Z,100.00
2023-03-10T19:10:29.825Z,100.00
2023-03-10T19:13:35.794Z,100.00
2023-03-10T19:16:49.984Z,100.00
2023-03-10T19:19:55.498Z,100.00
2023-03-10T19:23:01.233Z,100.00
2023-03-10T19:26:07.069Z,100.00
2023-03-10T19:29:20.048Z,100.00
2023-03-10T19:32:28.913Z,100.00
2023-03-10T19:35:34.579Z,100.00
2023-03-10T19:38:43.898Z,100.00
2023-03-10T19:41:49.472Z,100.00
2023-03-10T19:44:55.165Z,100.00
2023-03-10T19:48:09.564Z,100.00
2023-03-10T19:51:19.342Z,100.00
2023-03-10T19:54:24.898Z,100.00
2023-03-10T19:57:32.822Z,100.00
2023-03-10T20:00:38.389Z,100.00
2023-03-10T20:03:44.183Z,100.00
2023-03-10T20:06:52.114Z,100.00
2023-03-10T20:10:00.151Z,100.00
2023-03-10T20:13:09.297Z,100.00
2023-03-10T20:16:15.601Z,100.00
2023-03-10T20:19:23.602Z,100.00
2023-03-10T20:22:33.917Z,100.00
2023-03-10T20:25:42.653Z,100.00
2023-03-10T20:28:53.898Z,100.00
2023-03-10T20:31:59.465Z,100.00
2023-03-10T20:35:11.604Z,100.00
2023-03-10T20:38:17.470Z,100.00
2023-03-10T20:41:23.168Z,100.00
2023-03-10T20:44:35.459Z,100.00
2023-03-10T20:47:44.121Z,100.00
2023-03-10T20:50:56.073Z,100.00
2023-03-10T20:54:01.672Z,100.00
2023-03-10T20:57:12.173Z,100.00
2023-03-10T21:00:30.141Z,100.00
2023-03-10T21:03:38.508Z,100.00
2023-03-10T21:07:01.186Z,100.00
2023-03-10T21:10:26.065Z,100.00
2023-03-10T21:13:34.925Z,100.00
2023-03-10T21:16:46.802Z,100.00
2023-03-10T21:19:54.748Z,100.00
2023-03-10T21:23:05.592Z,100.00
2023-03-10T21:26:15.646Z,100.00
2023-03-10T21:29:36.797Z,100.00
2023-03-10T21:32:55.106Z,100.00
2023-03-10T21:36:00.880Z,100.00
2023-03-10T21:39:16.821Z,100.00
2023-03-10T21:42:27.912Z,100.00
2023-03-10T21:45:44.560Z,100.00
2023-03-10T21:49:10.202Z,100.00
2023-03-10T21:52:29.555Z,100.00
2023-03-10T21:55:42.224Z,100.00
2023-03-10T21:58:59.069Z,100.00
2023-03-10T22:02:27.055Z,100.00
2023-03-10T22:05:53.003Z,100.00
2023-03-10T22:09:18.757Z,100.00
2023-03-10T22:12:45.801Z,100.00
2023-03-10T22:16:15.041Z,100.00
2023-03-10T22:19:40.733Z,100.00
2023-03-10T22:23:06.510Z,100.00
2023-03-10T22:26:32.233Z,100.00
2023-03-10T22:29:57.968Z,100.00
2023-03-10T22:33:23.893Z,100.00
2023-03-10T22:36:49.690Z,100.00
2023-03-10T22:40:19.842Z,100.00
2023-03-10T22:43:45.561Z,100.00
2023-03-10T22:47:11.620Z,100.00
2023-03-10T22:50:38.260Z,100.00
2023-03-10T22:54:03.974Z,100.00
2023-03-10T22:57:30.021Z,100.00
2023-03-10T23:00:56.002Z,100.00
2023-03-10T23:04:21.855Z,100.00
2023-03-10T23:07:47.780Z,100.00
2023-03-10T23:11:15.718Z,100.00
2023-03-10T23:14:41.297Z,100.00
2023-03-10T23:18:07.943Z,100.00
2023-03-10T23:21:34.100Z,100.00
2023-03-10T23:24:59.768Z,100.00
2023-03-10T23:28:18.161Z,100.00
2023-03-10T23:31:44.491Z,100.00
2023-03-10T23:35:12.013Z,100.00
2023-03-10T23:38:37.508Z,100.00
2023-03-10T23:42:03.275Z,100.00
2023-03-10T23:45:31.100Z,100.00
2023-03-10T23:48:56.910Z,100.00
2023-03-10T23:52:22.572Z,100.00
2023-03-10T23:55:48.793Z,100.00
2023-03-10T23:59:24.820Z,100.00
